Alhambra, Illinois
Current Conditions -  °F | °C
As of 10:50 AM on Sunday 21 Dec 2014 (Local Time) from KALN Reporting Station
Overcast Overcast  
Wind Chill: 31°   Ceiling: 2300
Heat Index: 37°   Visibility: 7mi
Dew Point: 32°   Wind: 9mph
Humidity: 81%   Direction: 150°SSE
Pressure: 30.21"   Gusts: NA
Location:  38.89°N, 89.73°W
Report Text: KALN 211650Z 15008KT 7SM OVC023 03/00 A3021
Loading
Personal Weather Stations






























Interactive Weather Map New forecast layout! Learn more

10-Day Weather Forecast

Advertisements
Track Severe Weather on mobile